createdAt,value
2019-01-09T00:00:57.804Z,94785.73
2019-01-09T00:03:26.870Z,94795.59
2019-01-09T00:08:31.785Z,94796.44
2019-01-09T00:11:00.858Z,94787.19
2019-01-09T00:13:29.892Z,94787.84
2019-01-09T00:15:59.167Z,94794.77
2019-01-09T00:18:28.467Z,94787.13
2019-01-09T00:20:57.684Z,94790.98
2019-01-09T00:23:26.896Z,94777.75
2019-01-09T00:25:57.981Z,94784.88
2019-01-09T00:28:27.073Z,94759.36
2019-01-09T00:30:56.185Z,94807.78
2019-01-09T00:33:29.795Z,94786.64
2019-01-09T00:35:58.858Z,94777.15
2019-01-09T00:38:28.003Z,94780.62
2019-01-09T00:40:58.095Z,94784.14
2019-01-09T00:43:27.135Z,94790.47
2019-01-09T00:45:56.182Z,94773.84
2019-01-09T00:48:25.363Z,94784.36
2019-01-09T00:50:54.402Z,94790.57
2019-01-09T00:53:23.439Z,94784.90
2019-01-09T00:55:52.491Z,94770.27
2019-01-09T00:58:23.058Z,94756.73
2019-01-09T01:00:53.311Z,94768.72
2019-01-09T01:09:17.118Z,94772.28
2019-01-09T01:17:37.518Z,94776.36
2019-01-09T01:20:08.197Z,94760.48
2019-01-09T01:22:54.200Z,94777.64
2019-01-09T01:25:29.701Z,94759.46
2019-01-09T01:28:11.121Z,94753.75
2019-01-09T01:30:50.003Z,94763.96
2019-01-09T01:33:28.413Z,94763.95
2019-01-09T01:36:06.190Z,94758.73
2019-01-09T01:38:38.774Z,94763.75
2019-01-09T01:43:59.458Z,94757.45
2019-01-09T01:57:40.083Z,94764.37
2019-01-09T02:05:43.558Z,94746.19
2019-01-09T02:08:23.372Z,94741.27
2019-01-09T02:11:16.744Z,94748.47
2019-01-09T02:14:06.284Z,94744.30
2019-01-09T02:19:20.902Z,94747.09
2019-01-09T02:24:53.181Z,94761.23
2019-01-09T02:27:27.461Z,94755.47
2019-01-09T02:33:01.388Z,94746.91
2019-01-09T02:35:31.358Z,94743.70
2019-01-09T02:38:00.432Z,94745.70
2019-01-09T02:40:29.463Z,94748.95
2019-01-09T02:42:58.555Z,94738.86
2019-01-09T02:45:29.878Z,94731.05
2019-01-09T02:47:58.925Z,94718.50
2019-01-09T02:50:27.973Z,94720.92
2019-01-09T02:52:57.959Z,94730.41
2019-01-09T02:55:27.044Z,94706.28
2019-01-09T03:00:31.920Z,94702.70
2019-01-09T03:03:00.974Z,94694.17
2019-01-09T03:05:30.009Z,94708.36
2019-01-09T03:07:59.077Z,94689.45
2019-01-09T03:19:19.666Z,94679.94
2019-01-09T03:21:48.750Z,94685.02
2019-01-09T03:24:17.791Z,94687.67
2019-01-09T03:26:46.852Z,94669.38
2019-01-09T03:29:15.922Z,94661.59
2019-01-09T03:31:44.974Z,94677.02
2019-01-09T03:34:22.022Z,94677.38
2019-01-09T03:36:51.969Z,94663.66
2019-01-09T03:39:21.048Z,94666.84
2019-01-09T03:41:50.116Z,94672.19
2019-01-09T03:46:54.885Z,94650.59
2019-01-09T03:49:23.997Z,94652.83
2019-01-09T03:51:53.057Z,94666.37
2019-01-09T03:54:22.102Z,94658.80
2019-01-09T03:56:51.147Z,94648.06
2019-01-09T03:59:20.198Z,94630.84
2019-01-09T04:01:49.257Z,94646.69
2019-01-09T04:06:53.583Z,94640.41
2019-01-09T04:09:23.150Z,94630.42
2019-01-09T04:11:51.691Z,94632.23
2019-01-09T04:14:20.341Z,94636.06
2019-01-09T04:16:48.846Z,94640.23
2019-01-09T04:19:17.616Z,94677.12
2019-01-09T04:21:46.166Z,94668.99
2019-01-09T04:24:15.347Z,94661.41
2019-01-09T04:26:44.789Z,94662.84
2019-01-09T04:29:13.378Z,94665.13
2019-01-09T04:31:41.895Z,94658.21
2019-01-09T04:34:10.454Z,94661.32
2019-01-09T04:36:38.990Z,94652.33
2019-01-09T04:39:07.626Z,94654.48
2019-01-09T04:41:36.131Z,94649.66
2019-01-09T04:44:04.780Z,94641.44
2019-01-09T04:46:33.420Z,94641.34
2019-01-09T04:49:01.874Z,94636.50
2019-01-09T04:51:30.490Z,94632.95
2019-01-09T04:53:59.434Z,94630.20
2019-01-09T04:56:32.952Z,94635.77
2019-01-09T04:59:01.517Z,94637.93
2019-01-09T05:01:30.948Z,94630.48
2019-01-09T05:03:59.490Z,94633.23
2019-01-09T05:06:28.043Z,94635.02
2019-01-09T05:08:56.575Z,94630.10
2019-01-09T05:11:25.102Z,94625.20
2019-01-09T05:13:54.542Z,94619.42
2019-01-09T05:16:23.094Z,94612.41
2019-01-09T05:18:52.533Z,94613.09
2019-01-09T05:21:21.091Z,94614.31
2019-01-09T05:23:49.615Z,94619.77
2019-01-09T05:26:19.053Z,94621.98
2019-01-09T05:28:48.527Z,94620.66
2019-01-09T05:31:17.088Z,94624.83
2019-01-09T05:33:55.026Z,94622.06
2019-01-09T05:36:23.723Z,94623.09
2019-01-09T05:38:52.301Z,94622.02
2019-01-09T05:41:20.862Z,94623.14
2019-01-09T05:43:50.432Z,94626.01
2019-01-09T05:46:18.989Z,94625.49
2019-01-09T05:48:47.547Z,94625.76
2019-01-09T05:51:16.073Z,94617.86
2019-01-09T05:53:48.706Z,94621.69
2019-01-09T05:56:18.198Z,94616.73
2019-01-09T05:58:46.772Z,94618.31
2019-01-09T06:01:15.347Z,94611.66
2019-01-09T06:03:43.881Z,94612.42
2019-01-09T06:06:12.405Z,94612.84
2019-01-09T06:08:40.929Z,94613.84
2019-01-09T06:11:09.508Z,94622.35
2019-01-09T06:13:40.040Z,94624.80
2019-01-09T06:16:08.536Z,94628.14
2019-01-09T06:18:37.127Z,94627.41
2019-01-09T06:21:06.237Z,94629.05
2019-01-09T06:23:35.339Z,94619.63
2019-01-09T06:26:04.420Z,94615.94
2019-01-09T06:28:32.945Z,94599.45
2019-01-09T06:31:02.565Z,94593.17
2019-01-09T06:33:41.159Z,94588.05
2019-01-09T06:36:09.661Z,94589.91
2019-01-09T06:38:38.197Z,94585.00
2019-01-09T06:41:06.738Z,94592.62
2019-01-09T06:43:35.265Z,94604.58
2019-01-09T06:46:03.817Z,94614.28
2019-01-09T06:48:32.328Z,94621.59
2019-01-09T06:51:00.886Z,94633.10
2019-01-09T06:53:29.437Z,94639.72
2019-01-09T06:55:57.948Z,94638.77
2019-01-09T06:58:26.706Z,94635.86
2019-01-09T07:00:55.217Z,94624.59
2019-01-09T07:03:23.776Z,94625.14
2019-01-09T07:05:52.457Z,94620.32
2019-01-09T07:08:20.990Z,94621.78
2019-01-09T07:10:49.531Z,94619.39
2019-01-09T07:13:18.063Z,94621.84
2019-01-09T07:15:46.576Z,94626.80
2019-01-09T07:18:15.125Z,94624.66
2019-01-09T07:20:44.584Z,94625.03
2019-01-09T07:23:13.125Z,94632.96
2019-01-09T07:25:41.642Z,94636.19
2019-01-09T07:28:10.203Z,94636.96
2019-01-09T07:30:38.880Z,94640.76
2019-01-09T07:33:07.391Z,94636.11
2019-01-09T07:35:35.914Z,94636.00
2019-01-09T07:38:04.536Z,94635.63
2019-01-09T07:40:33.036Z,94633.88
2019-01-09T07:43:01.557Z,94630.19
2019-01-09T07:45:30.091Z,94622.30
2019-01-09T07:47:58.605Z,94618.31
2019-01-09T07:50:27.138Z,94624.92
2019-01-09T07:52:55.767Z,94624.48
2019-01-09T07:55:24.268Z,94621.14
2019-01-09T07:57:52.792Z,94626.03
2019-01-09T08:00:21.334Z,94628.59
2019-01-09T08:02:49.854Z,94636.12
2019-01-09T08:05:18.689Z,94632.56
2019-01-09T08:07:53.860Z,94639.33
2019-01-09T08:10:16.946Z,94644.61
2019-01-09T08:12:45.506Z,94648.13
2019-01-09T08:15:14.064Z,94648.80
2019-01-09T08:17:42.580Z,94648.53
2019-01-09T08:20:11.102Z,94653.58
2019-01-09T08:22:39.641Z,94650.22
2019-01-09T08:25:08.169Z,94648.63
2019-01-09T08:27:36.725Z,94651.26
2019-01-09T08:30:05.219Z,94653.22
2019-01-09T08:32:33.745Z,94655.20
2019-01-09T08:35:02.286Z,94656.89
2019-01-09T08:37:31.081Z,94663.46
2019-01-09T08:39:59.601Z,94663.55
2019-01-09T08:42:28.124Z,94667.51
2019-01-09T08:44:56.643Z,94672.62
2019-01-09T08:47:25.185Z,94672.74
2019-01-09T08:49:53.699Z,94677.44
2019-01-09T08:52:22.238Z,94673.37
2019-01-09T08:54:51.718Z,94674.86
2019-01-09T08:57:20.255Z,94678.50
2019-01-09T08:59:49.695Z,94680.52
2019-01-09T09:02:18.211Z,94679.14
2019-01-09T09:04:46.733Z,94685.09
2019-01-09T09:07:20.653Z,94697.14
2019-01-09T09:09:49.178Z,94694.81
2019-01-09T09:12:17.711Z,94705.30
2019-01-09T09:14:46.252Z,94705.84
2019-01-09T09:17:14.769Z,94706.39
2019-01-09T09:19:43.293Z,94717.69
2019-01-09T09:22:12.733Z,94713.70
2019-01-09T09:24:41.258Z,94720.14
2019-01-09T09:27:09.832Z,94720.03
2019-01-09T09:29:38.326Z,94727.94
2019-01-09T09:32:06.872Z,94723.55
2019-01-09T09:34:35.383Z,94727.13
2019-01-09T09:37:03.912Z,94726.28
2019-01-09T09:39:32.440Z,94725.76
2019-01-09T09:42:00.963Z,94727.13
2019-01-09T09:44:29.514Z,94729.97
2019-01-09T09:46:58.041Z,94732.05
2019-01-09T09:49:26.552Z,94732.09
2019-01-09T09:51:55.073Z,94721.92
2019-01-09T09:54:23.623Z,94725.39
2019-01-09T09:56:52.149Z,94727.84
2019-01-09T09:59:21.007Z,94724.79
2019-01-09T10:01:49.510Z,94724.75
2019-01-09T10:04:18.076Z,94727.03
2019-01-09T10:06:46.590Z,94721.42
2019-01-09T10:09:15.207Z,94721.95
2019-01-09T10:11:43.730Z,94721.19
2019-01-09T10:14:12.262Z,94718.16
2019-01-09T10:16:40.782Z,94718.31
2019-01-09T10:19:11.190Z,94724.84
2019-01-09T10:21:39.990Z,94727.62
2019-01-09T10:24:08.513Z,94727.64
2019-01-09T10:26:37.028Z,94731.38
2019-01-09T10:29:05.558Z,94735.55
2019-01-09T10:31:34.078Z,94732.95
2019-01-09T10:34:02.599Z,94730.23
2019-01-09T10:36:31.118Z,94728.48
2019-01-09T10:38:59.639Z,94732.95
2019-01-09T10:41:28.146Z,94729.13
2019-01-09T10:43:56.685Z,94725.79
2019-01-09T10:46:25.210Z,94721.27
2019-01-09T10:48:53.733Z,94722.34
2019-01-09T10:51:22.249Z,94719.61
2019-01-09T10:53:50.764Z,94717.16
2019-01-09T10:56:19.302Z,94715.09
2019-01-09T10:58:47.806Z,94715.23
2019-01-09T11:01:16.333Z,94713.91
2019-01-09T11:03:44.841Z,94716.30
2019-01-09T11:06:14.610Z,94709.91
2019-01-09T11:08:47.131Z,94711.97
2019-01-09T11:11:11.566Z,94711.94
2019-01-09T11:13:40.061Z,94714.84
2019-01-09T11:16:08.601Z,94714.09
2019-01-09T11:18:37.117Z,94706.19
2019-01-09T11:21:05.663Z,94706.23
2019-01-09T11:23:34.189Z,94705.09
2019-01-09T11:26:03.690Z,94704.41
2019-01-09T11:28:32.194Z,94699.23
2019-01-09T11:31:00.798Z,94701.52
2019-01-09T11:33:29.294Z,94698.85
2019-01-09T11:35:57.811Z,94692.77
2019-01-09T11:38:26.347Z,94695.16
2019-01-09T11:40:54.867Z,94693.58
2019-01-09T11:43:23.386Z,94691.61
2019-01-09T11:45:51.873Z,94693.10
2019-01-09T11:48:20.419Z,94692.18
2019-01-09T11:50:48.949Z,94691.82
2019-01-09T11:53:17.459Z,94692.67
2019-01-09T11:55:46.000Z,94689.23
2019-01-09T11:58:14.514Z,94689.20
2019-01-09T12:00:43.029Z,94689.45
2019-01-09T12:03:11.578Z,94686.94
2019-01-09T12:05:40.104Z,94692.41
2019-01-09T12:08:08.668Z,94693.52
2019-01-09T12:10:37.246Z,94686.73
2019-01-09T12:13:06.498Z,94685.34
2019-01-09T12:15:35.033Z,94683.20
2019-01-09T12:18:03.576Z,94683.38
2019-01-09T12:20:32.098Z,94681.28
2019-01-09T12:23:00.622Z,94684.18
2019-01-09T12:25:29.132Z,94687.06
2019-01-09T12:27:57.637Z,94686.36
2019-01-09T12:30:26.169Z,94688.07
2019-01-09T12:32:54.680Z,94691.91
2019-01-09T12:35:30.233Z,94690.05
2019-01-09T12:37:58.734Z,94694.47
2019-01-09T12:40:27.300Z,94697.20
2019-01-09T12:42:55.843Z,94701.80
2019-01-09T12:45:24.425Z,94704.80
2019-01-09T12:47:52.901Z,94702.67
2019-01-09T12:50:21.443Z,94711.20
2019-01-09T12:52:49.967Z,94713.22
2019-01-09T12:55:18.481Z,94709.41
2019-01-09T12:57:47.034Z,94714.93
2019-01-09T13:00:18.882Z,94723.95
2019-01-09T13:02:47.405Z,94719.59
2019-01-09T13:05:15.940Z,94728.02
2019-01-09T13:07:44.514Z,94734.63
2019-01-09T13:10:13.027Z,94735.11
2019-01-09T13:12:41.575Z,94733.16
2019-01-09T13:15:10.114Z,94737.25
2019-01-09T13:17:38.661Z,94734.00
2019-01-09T13:20:07.928Z,94730.75
2019-01-09T13:22:36.455Z,94732.48
2019-01-09T13:25:04.973Z,94732.13
2019-01-09T13:27:33.502Z,94735.17
2019-01-09T13:30:02.044Z,94729.74
2019-01-09T13:32:30.596Z,94737.02
2019-01-09T13:34:59.132Z,94735.07
2019-01-09T13:37:28.690Z,94748.83
2019-01-09T13:39:57.193Z,94739.91
2019-01-09T13:42:25.744Z,94747.59
2019-01-09T13:44:54.262Z,94751.06
2019-01-09T13:47:25.515Z,94747.43
2019-01-09T13:49:54.497Z,94752.56
2019-01-09T13:52:23.036Z,94756.64
2019-01-09T13:54:51.560Z,94758.31
2019-01-09T13:57:20.074Z,94756.52
2019-01-09T13:59:48.634Z,94765.52
2019-01-09T14:02:17.157Z,94770.56
2019-01-09T14:04:45.677Z,94769.78
2019-01-09T14:07:14.198Z,94776.07
2019-01-09T14:09:42.722Z,94777.98
2019-01-09T14:12:11.335Z,94780.23
2019-01-09T14:14:39.826Z,94783.31
2019-01-09T14:17:08.360Z,94787.85
2019-01-09T14:19:36.884Z,94789.69
2019-01-09T14:22:05.396Z,94798.95
2019-01-09T14:24:34.866Z,94797.52
2019-01-09T14:27:03.375Z,94804.09
2019-01-09T14:29:37.077Z,94802.52
2019-01-09T14:32:05.604Z,94806.07
2019-01-09T14:34:34.145Z,94806.45
2019-01-09T14:37:02.677Z,94814.72
2019-01-09T14:39:31.219Z,94811.42
2019-01-09T14:41:59.781Z,94815.59
2019-01-09T14:44:28.326Z,94821.23
2019-01-09T14:46:56.906Z,94822.52
2019-01-09T14:49:25.441Z,94828.44
2019-01-09T14:51:54.002Z,94830.64
2019-01-09T14:54:22.859Z,94826.88
2019-01-09T14:56:51.565Z,94832.91
2019-01-09T14:59:20.086Z,94826.72
2019-01-09T15:01:48.634Z,94832.69
2019-01-09T15:04:17.664Z,94832.50
2019-01-09T15:06:45.804Z,94835.50
2019-01-09T15:09:14.325Z,94835.29
2019-01-09T15:11:42.920Z,94835.55
2019-01-09T15:14:11.473Z,94841.42
2019-01-09T15:16:40.008Z,94846.70
2019-01-09T15:19:08.547Z,94841.84
2019-01-09T15:21:37.067Z,94843.81
2019-01-09T15:24:08.549Z,94844.25
2019-01-09T15:26:34.136Z,94849.13
2019-01-09T15:29:02.685Z,94851.16
2019-01-09T15:31:31.205Z,94853.48
2019-01-09T15:33:59.742Z,94855.16
2019-01-09T15:36:28.284Z,94855.78
2019-01-09T15:38:56.818Z,94868.04
2019-01-09T15:41:25.373Z,94870.91
2019-01-09T15:43:53.915Z,94871.02
2019-01-09T15:46:24.026Z,94877.11
2019-01-09T15:48:51.121Z,94879.56
2019-01-09T15:51:19.753Z,94881.31
2019-01-09T15:53:48.286Z,94877.69
2019-01-09T15:56:17.792Z,94875.83
2019-01-09T15:58:46.329Z,94880.92
2019-01-09T16:01:14.882Z,94885.30
2019-01-09T16:03:43.422Z,94886.77
2019-01-09T16:06:11.958Z,94889.58
2019-01-09T16:08:41.158Z,94887.78
2019-01-09T16:11:10.687Z,94890.64
2019-01-09T16:13:39.378Z,94893.13
2019-01-09T16:16:07.912Z,94886.40
2019-01-09T16:18:36.434Z,94886.63
2019-01-09T16:21:10.109Z,94891.55
2019-01-09T16:23:39.015Z,94889.05
2019-01-09T16:26:07.575Z,94894.37
2019-01-09T16:28:36.105Z,94891.59
2019-01-09T16:31:04.646Z,94890.67
2019-01-09T16:33:33.198Z,94895.05
2019-01-09T16:36:01.867Z,94893.83
2019-01-09T16:38:30.414Z,94904.61
2019-01-09T16:40:58.947Z,94897.48
2019-01-09T16:43:27.502Z,94901.34
2019-01-09T16:45:56.028Z,94896.85
2019-01-09T16:48:24.552Z,94899.95
2019-01-09T16:50:53.110Z,94898.97
2019-01-09T16:53:21.657Z,94902.94
2019-01-09T16:55:50.195Z,94904.88
2019-01-09T16:58:18.749Z,94899.72
2019-01-09T17:00:47.293Z,94905.69
2019-01-09T17:03:15.836Z,94907.39
2019-01-09T17:05:44.354Z,94903.45
2019-01-09T17:08:12.885Z,94907.50
2019-01-09T17:10:41.441Z,94908.36
2019-01-09T17:13:10.963Z,94908.35
2019-01-09T17:15:39.580Z,94914.07
2019-01-09T17:18:08.023Z,94916.85
2019-01-09T17:20:36.547Z,94920.40
2019-01-09T17:23:05.093Z,94922.13
2019-01-09T17:25:33.615Z,94925.77
2019-01-09T17:28:05.819Z,94925.70
2019-01-09T17:30:44.375Z,94930.88
2019-01-09T17:33:23.211Z,94931.16
2019-01-09T17:35:51.732Z,94933.05
2019-01-09T17:38:32.704Z,94934.09
2019-01-09T17:41:03.159Z,94935.00
2019-01-09T17:43:31.730Z,94934.30
2019-01-09T17:46:00.261Z,94932.73
2019-01-09T17:48:28.786Z,94938.47
2019-01-09T17:50:58.257Z,94930.30
2019-01-09T17:53:26.778Z,94934.16
2019-01-09T17:56:05.972Z,94935.03
2019-01-09T17:58:35.957Z,94940.48
2019-01-09T18:01:04.547Z,94943.34
2019-01-09T18:03:33.088Z,94944.92
2019-01-09T18:06:01.612Z,94940.50
2019-01-09T18:08:30.152Z,94939.77
2019-01-09T18:10:59.760Z,94940.98
2019-01-09T18:13:28.323Z,94940.09
2019-01-09T18:16:02.665Z,94944.72
2019-01-09T18:18:31.247Z,94942.01
2019-01-09T18:20:59.827Z,94940.70
2019-01-09T18:23:28.367Z,94942.52
2019-01-09T18:25:56.982Z,94943.85
2019-01-09T18:28:25.534Z,94948.19
2019-01-09T18:31:03.325Z,94953.05
2019-01-09T18:33:28.870Z,94952.66
2019-01-09T18:36:32.197Z,94963.31
2019-01-09T18:39:08.702Z,94957.53
2019-01-09T18:44:46.440Z,94970.59
2019-01-09T18:47:26.566Z,94969.56
2019-01-09T18:52:53.880Z,94984.55
2019-01-09T18:55:22.426Z,94983.42
2019-01-09T18:57:50.970Z,94986.06
2019-01-09T19:00:19.490Z,94994.48
2019-01-09T19:02:48.059Z,94999.13
2019-01-09T19:05:23.233Z,95003.96
2019-01-09T19:07:51.777Z,95008.90
2019-01-09T19:10:20.322Z,95008.89
2019-01-09T19:12:50.595Z,95010.92
2019-01-09T19:15:17.406Z,95013.83
2019-01-09T19:17:45.961Z,95010.70
2019-01-09T19:20:14.491Z,95018.31
2019-01-09T19:22:43.090Z,95016.43
2019-01-09T19:25:12.234Z,95020.68
2019-01-09T19:27:40.786Z,95023.72
2019-01-09T19:30:12.803Z,95023.23
2019-01-09T19:32:41.363Z,95035.25
2019-01-09T19:35:10.056Z,95037.00
2019-01-09T19:37:39.586Z,95038.12
2019-01-09T19:40:08.129Z,95036.36
2019-01-09T19:42:36.726Z,95035.51
2019-01-09T19:45:06.246Z,95042.38
2019-01-09T19:47:35.771Z,95042.64
2019-01-09T19:50:09.178Z,95042.27
2019-01-09T19:52:43.470Z,95044.11
2019-01-09T19:55:12.060Z,95042.26
2019-01-09T19:57:40.601Z,95048.81
2019-01-09T20:00:13.845Z,95053.92
2019-01-09T20:02:46.810Z,95055.17
2019-01-09T20:05:17.315Z,95056.02
2019-01-09T20:07:46.252Z,95061.50
2019-01-09T20:10:15.743Z,95062.49
2019-01-09T20:12:44.282Z,95057.18
2019-01-09T20:15:12.883Z,95064.56
2019-01-09T20:17:41.640Z,95059.83
2019-01-09T20:20:10.919Z,95074.31
2019-01-09T20:22:40.352Z,95066.11
2019-01-09T20:25:09.737Z,95069.65
2019-01-09T20:27:39.174Z,95073.82
2019-01-09T20:30:11.337Z,95079.55
2019-01-09T20:32:39.880Z,95080.47
2019-01-09T20:35:10.621Z,95074.38
2019-01-09T20:37:39.267Z,95077.68
2019-01-09T20:40:08.017Z,95072.53
2019-01-09T20:42:36.651Z,95079.66
2019-01-09T20:45:05.400Z,95083.81
2019-01-09T20:47:34.096Z,95086.48
2019-01-09T20:50:02.651Z,95084.72
2019-01-09T20:52:31.495Z,95092.81
2019-01-09T20:55:00.262Z,95084.48
2019-01-09T20:57:28.788Z,95086.91
2019-01-09T20:59:58.615Z,95087.64
2019-01-09T21:02:29.273Z,95089.30
2019-01-09T21:04:57.920Z,95087.98
2019-01-09T21:07:27.290Z,95087.27
2019-01-09T21:09:55.978Z,95085.95
2019-01-09T21:12:24.565Z,95091.95
2019-01-09T21:14:55.031Z,95092.53
2019-01-09T21:17:23.656Z,95091.63
2019-01-09T21:19:52.234Z,95101.78
2019-01-09T21:22:21.715Z,95100.73
2019-01-09T21:24:50.393Z,95099.73
2019-01-09T21:27:18.905Z,95097.48
2019-01-09T21:29:47.446Z,95098.00
2019-01-09T21:32:16.006Z,95106.80
2019-01-09T21:34:46.494Z,95098.78
2019-01-09T21:37:15.027Z,95107.30
2019-01-09T21:39:43.714Z,95109.39
2019-01-09T21:42:12.323Z,95102.95
2019-01-09T21:44:43.053Z,95106.41
2019-01-09T21:47:11.907Z,95107.52
2019-01-09T21:49:40.599Z,95109.52
2019-01-09T21:52:09.177Z,95111.36
2019-01-09T21:54:37.765Z,95114.59
2019-01-09T21:57:06.426Z,95109.34
2019-01-09T21:59:35.098Z,95116.10
2019-01-09T22:02:03.656Z,95116.98
2019-01-09T22:04:32.170Z,95120.89
2019-01-09T22:07:00.979Z,95119.70
2019-01-09T22:09:29.521Z,95122.28
2019-01-09T22:12:02.636Z,95121.32
2019-01-09T22:14:26.632Z,95123.00
2019-01-09T22:16:55.242Z,95121.67
2019-01-09T22:19:23.773Z,95120.57
2019-01-09T22:21:52.308Z,95122.52
2019-01-09T22:24:20.847Z,95120.05
2019-01-09T22:26:56.899Z,95123.44
2019-01-09T22:29:25.848Z,95127.22
2019-01-09T22:31:54.384Z,95123.19
2019-01-09T22:34:24.883Z,95122.39
2019-01-09T22:36:53.421Z,95123.80
2019-01-09T22:39:23.914Z,95123.02
2019-01-09T22:41:52.460Z,95127.40
2019-01-09T22:44:21.002Z,95122.56
2019-01-09T22:46:50.162Z,95128.98
2019-01-09T22:49:18.704Z,95129.98
2019-01-09T22:51:47.218Z,95130.19
2019-01-09T22:54:15.775Z,95125.38
2019-01-09T22:56:44.410Z,95128.64
2019-01-09T22:59:12.863Z,95125.78
2019-01-09T23:01:41.396Z,95128.91
2019-01-09T23:04:09.945Z,95127.34
2019-01-09T23:06:38.494Z,95126.97
2019-01-09T23:09:07.042Z,95136.39
2019-01-09T23:11:35.569Z,95133.55
2019-01-09T23:14:04.126Z,95139.72
2019-01-09T23:16:33.978Z,95136.66
2019-01-09T23:19:02.768Z,95135.64
2019-01-09T23:21:33.169Z,95134.48
2019-01-09T23:23:59.874Z,95132.96
2019-01-09T23:26:28.426Z,95131.95
2019-01-09T23:28:56.960Z,95130.43
2019-01-09T23:31:26.525Z,95135.78
2019-01-09T23:33:55.967Z,95126.70
2019-01-09T23:36:24.498Z,95135.64
2019-01-09T23:38:53.051Z,95141.02
2019-01-09T23:41:21.600Z,95133.05
2019-01-09T23:43:50.122Z,95136.19
2019-01-09T23:46:18.671Z,95138.70
2019-01-09T23:48:47.234Z,95145.82
2019-01-09T23:51:15.821Z,95141.10
2019-01-09T23:53:44.349Z,95146.38
2019-01-09T23:56:12.891Z,95149.03
2019-01-09T23:58:41.459Z,95145.87
